Time;durP1;ratioP1;P1;durP2;ratioP2;P2;SDS_P1;SDS_P2;PMS_P1;PMS_P2;Temp;Humidity;BMP_temperature;BMP_pressure;BME280_temperature;BME280_humidity;BME280_pressure;Samples;Min_cycle;Max_cycle;Signal;HPM_P1;HPM_P2
2024/03/21 00:02:04;;;;;;;18.90;15.15;;;17.30;78.70;;;;;;4981931;28;20026;-39
2024/03/21 00:04:30;;;;;;;17.30;14.77;;;17.30;78.80;;;;;;4971959;28;20052;-40
2024/03/21 00:06:56;;;;;;;17.35;15.20;;;17.20;78.70;;;;;;4973640;28;20029;-40
2024/03/21 00:09:22;;;;;;;17.92;16.02;;;17.20;78.80;;;;;;4977992;28;20027;-39
2024/03/21 00:11:48;;;;;;;17.25;15.05;;;17.20;78.80;;;;;;4977590;28;20053;-40
2024/03/21 00:14:15;;;;;;;18.67;14.80;;;17.20;78.80;;;;;;4981263;28;20421;-40
2024/03/21 00:16:41;;;;;;;16.70;14.85;;;17.20;78.80;;;;;;4976375;28;20041;-39
2024/03/21 00:19:07;;;;;;;16.80;15.00;;;17.10;78.80;;;;;;4977428;28;20517;-40
2024/03/21 00:21:34;;;;;;;19.13;15.75;;;17.10;78.80;;;;;;4977806;28;20030;-40
2024/03/21 00:24:00;;;;;;;18.52;15.50;;;17.10;78.80;;;;;;4962443;28;20014;-40
2024/03/21 00:26:25;;;;;;;16.75;15.02;;;17.10;79.50;;;;;;4957522;28;20029;-40
2024/03/21 00:28:52;;;;;;;18.17;15.68;;;17.10;78.80;;;;;;4978335;28;20022;-39
2024/03/21 00:31:17;;;;;;;16.90;14.45;;;17.10;78.90;;;;;;4974636;28;20031;-40
2024/03/21 00:33:47;;;;;;;17.98;15.07;;;17.00;78.80;;;;;;4969680;28;20061;-39
2024/03/21 00:36:14;;;;;;;18.73;15.93;;;17.00;78.90;;;;;;4976342;28;20042;-40
2024/03/21 00:38:40;;;;;;;18.00;14.75;;;17.00;78.90;;;;;;4957101;28;20058;-39
2024/03/21 00:41:06;;;;;;;17.08;15.07;;;17.00;78.90;;;;;;4976787;28;20027;-39
2024/03/21 00:43:31;;;;;;;18.40;15.63;;;16.90;78.80;;;;;;4974002;28;20581;-39
2024/03/21 00:45:57;;;;;;;18.08;15.32;;;16.90;78.90;;;;;;4975627;28;20022;-40
2024/03/21 00:48:23;;;;;;;17.92;15.88;;;16.90;78.90;;;;;;4972959;28;20030;-40
2024/03/21 00:50:48;;;;;;;17.70;15.27;;;16.90;78.90;;;;;;4974058;28;20030;-39
2024/03/21 00:53:14;;;;;;;19.25;15.65;;;16.90;78.90;;;;;;4978335;28;20050;-39
2024/03/21 00:55:40;;;;;;;18.00;15.65;;;16.80;78.90;;;;;;4984525;28;20049;-36
2024/03/21 00:58:06;;;;;;;17.67;15.73;;;16.80;78.90;;;;;;4978964;28;20053;-40
2024/03/21 01:00:31;;;;;;;18.52;15.95;;;16.80;78.90;;;;;;4976246;28;20023;-39
2024/03/21 01:02:57;;;;;;;18.33;16.17;;;16.80;78.90;;;;;;4974864;28;20077;-39
2024/03/21 01:05:24;;;;;;;18.13;15.43;;;16.80;79.00;;;;;;4981455;28;20030;-38
2024/03/21 01:07:50;;;;;;;18.40;15.40;;;16.80;79.00;;;;;;4973357;28;20038;-39
2024/03/21 01:10:16;;;;;;;17.95;15.38;;;16.70;79.40;;;;;;4963890;28;20027;-41
2024/03/21 01:12:43;;;;;;;18.27;16.17;;;16.70;79.00;;;;;;4969129;28;20020;-35
2024/03/21 01:15:09;;;;;;;18.27;15.23;;;16.70;79.00;;;;;;4981389;28;20038;-40
2024/03/21 01:17:36;;;;;;;19.13;16.92;;;16.70;79.00;;;;;;4965657;28;20050;-42
2024/03/21 01:20:02;;;;;;;19.20;16.58;;;16.70;79.00;;;;;;4972888;28;20105;-40
2024/03/21 01:22:28;;;;;;;18.33;15.52;;;16.60;79.00;;;;;;4970153;28;20817;-40
2024/03/21 01:24:54;;;;;;;17.95;15.48;;;16.70;79.10;;;;;;4972249;28;20050;-39
2024/03/21 01:27:20;;;;;;;16.75;14.95;;;16.60;79.00;;;;;;4977053;28;20026;-39
2024/03/21 01:29:45;;;;;;;17.90;16.00;;;16.60;79.00;;;;;;4976491;28;20058;-40
2024/03/21 01:32:12;;;;;;;18.42;16.23;;;16.50;79.00;;;;;;4979868;28;20023;-39
2024/03/21 01:34:37;;;;;;;18.52;16.08;;;16.60;79.00;;;;;;4974230;28;20022;-40
2024/03/21 01:37:03;;;;;;;19.60;15.40;;;16.50;79.00;;;;;;4957402;28;20447;-40
2024/03/21 01:39:29;;;;;;;18.42;15.50;;;16.50;79.00;;;;;;4976270;28;20035;-39
2024/03/21 01:41:55;;;;;;;18.95;16.20;;;16.50;79.10;;;;;;4974916;28;20540;-41
2024/03/21 01:44:21;;;;;;;19.67;16.30;;;16.50;79.10;;;;;;4970978;28;20030;-40
2024/03/21 01:46:47;;;;;;;18.55;15.63;;;16.50;79.10;;;;;;4977383;28;20061;-39
2024/03/21 01:49:14;;;;;;;19.05;16.10;;;16.50;79.10;;;;;;4968423;28;20524;-41
2024/03/21 01:51:45;;;;;;;18.85;15.98;;;16.40;79.10;;;;;;4968524;28;20039;-38
2024/03/21 01:54:12;;;;;;;19.48;16.92;;;16.50;79.10;;;;;;4973733;28;20073;-39
2024/03/21 01:56:37;;;;;;;19.63;16.98;;;16.40;79.10;;;;;;4982794;28;20062;-40
2024/03/21 01:59:07;;;;;;;19.38;16.38;;;16.40;79.10;;;;;;4952641;28;20019;-40
2024/03/21 02:01:33;;;;;;;19.27;16.55;;;16.40;79.10;;;;;;4980700;28;20055;-38
2024/03/21 02:04:00;;;;;;;19.13;16.13;;;16.40;79.20;;;;;;4969713;28;20023;-39
2024/03/21 02:06:28;;;;;;;18.73;16.38;;;16.40;79.20;;;;;;4975011;28;20057;-39
2024/03/21 02:08:54;;;;;;;22.35;17.08;;;16.30;79.10;;;;;;4974233;28;20085;-39
2024/03/21 02:11:22;;;;;;;20.05;16.50;;;16.30;79.10;;;;;;4981290;28;20034;-39
2024/03/21 02:13:53;;;;;;;19.90;16.65;;;16.30;79.20;;;;;;4967483;28;20026;-41
2024/03/21 02:16:21;;;;;;;18.92;16.80;;;16.30;79.20;;;;;;4973269;28;20062;-40
2024/03/21 02:18:47;;;;;;;19.40;16.17;;;16.30;79.20;;;;;;4971605;28;20027;-39
2024/03/21 02:23:57;;;;;;;19.90;16.88;;;16.20;79.80;;;;;;4962627;28;20036;-38
2024/03/21 02:26:24;;;;;;;19.00;16.08;;;16.20;79.10;;;;;;4972680;28;20027;-40
2024/03/21 02:28:50;;;;;;;21.00;17.20;;;16.20;79.10;;;;;;4975959;28;20023;-40
2024/03/21 02:31:19;;;;;;;20.30;16.98;;;16.20;79.20;;;;;;4975343;28;20545;-40
2024/03/21 02:33:46;;;;;;;18.75;16.63;;;16.20;79.20;;;;;;4959084;28;20043;-40
2024/03/21 02:36:12;;;;;;;19.70;17.60;;;16.20;79.20;;;;;;4968370;28;20070;-40
2024/03/21 02:38:38;;;;;;;21.52;17.67;;;16.10;79.20;;;;;;4974292;28;20031;-39
2024/03/21 02:41:04;;;;;;;20.52;16.75;;;16.10;79.20;;;;;;4982564;28;20054;-40
2024/03/21 02:43:30;;;;;;;20.42;17.40;;;16.10;79.10;;;;;;4972251;28;20027;-40
2024/03/21 02:45:55;;;;;;;20.35;17.50;;;16.10;79.20;;;;;;4982849;28;20336;-41
2024/03/21 02:48:21;;;;;;;21.60;18.15;;;16.10;79.20;;;;;;4973041;28;20026;-39
2024/03/21 02:50:47;;;;;;;20.00;17.35;;;16.10;79.30;;;;;;4970506;28;20014;-39
2024/03/21 02:53:13;;;;;;;21.60;18.10;;;16.00;79.80;;;;;;4978151;28;20061;-42
2024/03/21 02:55:38;;;;;;;20.77;17.83;;;16.00;79.20;;;;;;4955458;28;20042;-41
2024/03/21 02:58:04;;;;;;;19.42;17.40;;;16.00;79.10;;;;;;4970450;28;20049;-40
2024/03/21 03:00:30;;;;;;;20.30;17.38;;;16.00;79.20;;;;;;4976771;28;20553;-40
2024/03/21 03:02:56;;;;;;;21.25;17.42;;;16.00;79.20;;;;;;4980223;28;20276;-41
2024/03/21 03:05:21;;;;;;;20.48;17.40;;;15.90;79.10;;;;;;4969432;28;20026;-42
2024/03/21 03:07:47;;;;;;;19.85;17.25;;;15.90;79.10;;;;;;4980312;28;20023;-41
2024/03/21 03:10:16;;;;;;;19.77;16.95;;;15.90;79.10;;;;;;4978998;28;20599;-42
2024/03/21 03:12:42;;;;;;;19.80;16.88;;;15.90;79.20;;;;;;4977678;28;20338;-40
2024/03/21 03:15:09;;;;;;;18.85;16.83;;;15.90;79.20;;;;;;4982704;28;20023;-41
2024/03/21 03:17:36;;;;;;;21.00;17.77;;;15.90;79.20;;;;;;4979581;28;20019;-42
2024/03/21 03:20:01;;;;;;;20.63;17.45;;;15.90;79.20;;;;;;4974189;28;20031;-41
2024/03/21 03:22:27;;;;;;;19.27;16.27;;;15.90;79.20;;;;;;4975693;28;20476;-39
2024/03/21 03:24:53;;;;;;;18.35;16.23;;;15.90;79.20;;;;;;4973314;28;20030;-41
2024/03/21 03:27:18;;;;;;;18.58;16.08;;;15.80;79.20;;;;;;4979680;28;20527;-41
2024/03/21 03:29:44;;;;;;;19.48;16.52;;;15.80;79.20;;;;;;4976649;28;20027;-40
2024/03/21 03:32:11;;;;;;;18.77;16.35;;;15.80;79.20;;;;;;4978823;28;20032;-40
2024/03/21 03:37:21;;;;;;;18.53;15.50;;;15.80;79.20;;;;;;4980299;28;20043;-41
2024/03/21 03:39:46;;;;;;;17.60;15.60;;;15.80;79.20;;;;;;4981545;28;20290;-41
2024/03/21 03:42:12;;;;;;;19.45;16.05;;;15.80;79.30;;;;;;4974552;28;20023;-41
2024/03/21 03:44:38;;;;;;;19.30;16.13;;;15.70;79.30;;;;;;4976527;28;20023;-41
2024/03/21 03:47:04;;;;;;;19.15;15.63;;;15.70;79.30;;;;;;4974027;28;20061;-41
2024/03/21 03:49:30;;;;;;;19.17;16.63;;;15.70;79.20;;;;;;4973483;28;20286;-41
2024/03/21 03:51:56;;;;;;;20.52;17.50;;;15.70;79.20;;;;;;4976641;28;20515;-41
2024/03/21 03:54:22;;;;;;;18.67;16.45;;;15.70;79.20;;;;;;4979075;28;20046;-41
2024/03/21 03:56:47;;;;;;;18.23;16.13;;;15.70;79.30;;;;;;4974505;28;20035;-41
2024/03/21 03:59:13;;;;;;;18.35;16.05;;;15.70;79.40;;;;;;4969398;28;20047;-42
2024/03/21 04:01:38;;;;;;;18.08;15.85;;;15.70;79.40;;;;;;4979507;28;20031;-39
2024/03/21 04:04:04;;;;;;;20.85;16.45;;;15.70;79.40;;;;;;4977017;28;20592;-40
2024/03/21 04:06:30;;;;;;;17.85;15.20;;;15.60;79.30;;;;;;4970568;28;20070;-39
2024/03/21 04:08:56;;;;;;;17.58;15.43;;;15.60;79.30;;;;;;4964982;28;20455;-41
2024/03/21 04:11:22;;;;;;;18.50;15.48;;;15.60;79.30;;;;;;4955421;28;20304;-42
2024/03/21 04:13:48;;;;;;;18.17;16.00;;;15.60;79.90;;;;;;4977667;28;20027;-40
2024/03/21 04:16:17;;;;;;;17.77;15.88;;;15.60;79.30;;;;;;4973489;28;20041;-40
2024/03/21 04:18:43;;;;;;;18.35;16.17;;;15.60;79.30;;;;;;4977393;28;20034;-41
2024/03/21 04:21:10;;;;;;;16.50;14.70;;;15.60;79.30;;;;;;4956629;28;20380;-41
2024/03/21 04:23:36;;;;;;;20.02;17.05;;;15.50;79.20;;;;;;4979248;28;20038;-41
2024/03/21 04:26:02;;;;;;;17.25;15.40;;;15.50;79.30;;;;;;4976632;28;20031;-41
2024/03/21 04:28:28;;;;;;;19.15;16.00;;;15.50;79.30;;;;;;4974574;28;20027;-39
2024/03/21 04:30:54;;;;;;;18.08;15.88;;;15.50;79.30;;;;;;4968406;28;20022;-40
2024/03/21 04:33:19;;;;;;;17.83;15.30;;;15.50;79.30;;;;;;4976993;28;20027;-40
2024/03/21 04:35:45;;;;;;;18.00;16.13;;;15.50;79.40;;;;;;4976721;28;20185;-38
2024/03/21 04:38:11;;;;;;;19.92;16.67;;;15.50;79.40;;;;;;4975789;28;20050;-41
2024/03/21 04:40:37;;;;;;;19.17;16.27;;;15.50;79.40;;;;;;4967732;28;20499;-40
2024/03/21 04:43:03;;;;;;;18.85;16.35;;;15.40;79.30;;;;;;4973402;28;20033;-40
2024/03/21 04:45:29;;;;;;;19.60;15.55;;;15.40;79.30;;;;;;4980181;28;20030;-40
2024/03/21 04:47:55;;;;;;;17.35;15.15;;;15.40;79.30;;;;;;4975143;28;20061;-40
2024/03/21 04:50:22;;;;;;;16.00;14.27;;;15.40;79.30;;;;;;4977998;28;20031;-40
2024/03/21 04:52:48;;;;;;;17.38;14.32;;;15.40;79.30;;;;;;4977977;28;20039;-39
2024/03/21 04:55:14;;;;;;;15.07;13.13;;;15.30;79.20;;;;;;4977161;28;20041;-38
2024/03/21 04:57:40;;;;;;;16.13;13.63;;;15.40;79.30;;;;;;4980485;28;20025;-40
2024/03/21 05:00:10;;;;;;;14.70;12.95;;;15.40;79.40;;;;;;4977459;28;20499;-40
2024/03/21 05:02:42;;;;;;;15.25;12.60;;;15.30;79.30;;;;;;4973966;28;20072;-40
2024/03/21 05:05:09;;;;;;;15.35;12.55;;;15.30;79.30;;;;;;4978857;28;20029;-39
2024/03/21 05:07:35;;;;;;;13.68;12.10;;;15.30;79.20;;;;;;4969868;28;20055;-40
2024/03/21 05:10:01;;;;;;;14.13;11.43;;;15.30;79.30;;;;;;4978064;28;20019;-41
2024/03/21 05:12:27;;;;;;;12.82;10.90;;;15.30;79.30;;;;;;4980424;28;20034;-39
2024/03/21 05:14:53;;;;;;;11.00;9.88;;;15.30;79.30;;;;;;4974265;28;20053;-38
2024/03/21 05:17:20;;;;;;;11.90;10.07;;;15.30;79.90;;;;;;4973436;28;20774;-38
2024/03/21 05:19:49;;;;;;;10.63;9.30;;;15.30;79.30;;;;;;4977595;28;20053;-36
2024/03/21 05:22:18;;;;;;;9.73;8.63;;;15.30;79.30;;;;;;4976527;28;20058;-35
2024/03/21 05:24:44;;;;;;;10.55;8.77;;;15.30;79.40;;;;;;4971132;28;20027;-36
2024/03/21 05:27:14;;;;;;;10.60;8.70;;;15.20;79.30;;;;;;4970387;28;20033;-37
2024/03/21 05:29:41;;;;;;;8.07;7.20;;;15.20;79.30;;;;;;4973063;28;20035;-35
2024/03/21 05:32:07;;;;;;;8.75;7.00;;;15.20;79.30;;;;;;4976257;28;20023;-39
2024/03/21 05:34:34;;;;;;;9.05;7.25;;;15.20;79.30;;;;;;4977025;28;20023;-33
2024/03/21 05:37:00;;;;;;;8.75;6.78;;;15.20;79.30;;;;;;4973559;28;20042;-35
2024/03/21 05:39:26;;;;;;;8.48;6.90;;;15.10;79.30;;;;;;4961130;28;20031;-35
2024/03/21 05:41:52;;;;;;;7.97;6.63;;;15.10;79.30;;;;;;4970817;28;20035;-37
2024/03/21 05:44:18;;;;;;;8.18;6.75;;;15.10;79.30;;;;;;4978435;28;20035;-34
2024/03/21 05:46:43;;;;;;;7.13;6.13;;;15.10;79.40;;;;;;4977704;28;20640;-40
2024/03/21 05:49:10;;;;;;;7.30;5.68;;;15.10;79.40;;;;;;4962887;28;20045;-42
2024/03/21 05:51:36;;;;;;;7.68;6.00;;;15.10;79.40;;;;;;4979113;28;20108;-41
2024/03/21 05:54:05;;;;;;;6.60;5.38;;;15.10;79.40;;;;;;4971090;28;20026;-41
2024/03/21 05:56:31;;;;;;;7.13;5.70;;;15.00;79.30;;;;;;4980883;28;20424;-40
2024/03/21 05:58:57;;;;;;;6.72;5.57;;;15.10;79.30;;;;;;4970593;28;20027;-40
2024/03/21 06:01:22;;;;;;;6.60;5.55;;;15.00;79.30;;;;;;4971066;28;20026;-41
2024/03/21 06:03:49;;;;;;;6.68;5.90;;;15.00;79.40;;;;;;4976773;28;20062;-41
2024/03/21 06:06:15;;;;;;;7.00;5.40;;;15.00;79.30;;;;;;4971034;28;20058;-39
2024/03/21 06:08:42;;;;;;;8.43;6.28;;;15.00;79.30;;;;;;4964165;28;20048;-40
2024/03/21 06:11:07;;;;;;;6.82;5.65;;;15.00;79.30;;;;;;4978811;28;20268;-39
2024/03/21 06:13:34;;;;;;;7.18;5.82;;;14.90;79.20;;;;;;4958952;28;20112;-40
2024/03/21 06:16:00;;;;;;;9.00;6.03;;;14.90;79.30;;;;;;4965799;28;20075;-40
2024/03/21 06:18:26;;;;;;;7.72;6.72;;;14.90;79.30;;;;;;4976089;28;20034;-39
2024/03/21 06:20:52;;;;;;;7.57;6.18;;;14.90;79.30;;;;;;4966891;28;20031;-38
2024/03/21 06:23:18;;;;;;;7.32;5.97;;;14.90;79.30;;;;;;4972231;28;20059;-40
2024/03/21 06:25:44;;;;;;;7.82;6.53;;;14.80;79.20;;;;;;4982644;28;20031;-40
2024/03/21 06:28:10;;;;;;;6.45;5.13;;;14.80;79.20;;;;;;4978910;28;20035;-40
2024/03/21 06:30:36;;;;;;;6.43;5.32;;;14.80;79.20;;;;;;4956237;28;20016;-40
2024/03/21 06:33:02;;;;;;;6.20;5.10;;;14.80;79.20;;;;;;4948051;28;20095;-40
2024/03/21 06:35:28;;;;;;;6.75;4.95;;;14.80;79.20;;;;;;4970210;28;20058;-40
2024/03/21 06:37:55;;;;;;;7.38;5.22;;;14.80;79.20;;;;;;4968338;28;20022;-41
2024/03/21 06:40:22;;;;;;;6.32;4.82;;;14.70;79.20;;;;;;4974025;28;20024;-40
2024/03/21 06:42:48;;;;;;;6.95;4.18;;;14.70;79.10;;;;;;4968027;28;20026;-40
2024/03/21 06:45:14;;;;;;;5.32;4.13;;;14.70;79.00;;;;;;4975496;28;20023;-40
2024/03/21 06:47:42;;;;;;;5.82;3.70;;;14.70;79.00;;;;;;4974143;28;20213;-40
2024/03/21 06:50:12;;;;;;;5.13;3.10;;;14.70;79.00;;;;;;4980850;28;20031;-40
2024/03/21 06:52:38;;;;;;;4.75;2.90;;;14.70;78.90;;;;;;4977466;28;20046;-40
2024/03/21 06:55:04;;;;;;;4.15;3.03;;;14.70;78.90;;;;;;4980984;28;20019;-40
2024/03/21 06:57:33;;;;;;;4.95;3.00;;;14.60;79.00;;;;;;4975069;28;20050;-38
2024/03/21 06:59:58;;;;;;;4.55;3.25;;;14.60;78.90;;;;;;4973213;28;20551;-41
2024/03/21 07:02:24;;;;;;;3.67;2.63;;;14.60;79.00;;;;;;4978020;28;20098;-39
2024/03/21 07:04:50;;;;;;;3.75;2.50;;;14.50;79.00;;;;;;4959608;28;20030;-41
2024/03/21 07:07:15;;;;;;;4.13;2.67;;;14.60;79.00;;;;;;4962039;28;20114;-41
2024/03/21 07:09:42;;;;;;;3.90;2.70;;;14.60;79.00;;;;;;4969641;28;20030;-41
2024/03/21 07:12:08;;;;;;;4.88;2.65;;;14.60;79.00;;;;;;4965939;28;20027;-42
2024/03/21 07:14:33;;;;;;;2.83;2.35;;;14.50;78.90;;;;;;4970583;28;20027;-40
2024/03/21 07:17:02;;;;;;;3.72;2.20;;;14.60;78.90;;;;;;4985028;28;20526;-41
2024/03/21 07:19:35;;;;;;;4.13;2.55;;;14.60;79.00;;;;;;4981584;28;20037;-41
2024/03/21 07:22:06;;;;;;;3.60;2.30;;;14.50;78.90;;;;;;4976420;28;20038;-41
2024/03/21 07:24:32;;;;;;;3.88;2.20;;;14.50;78.90;;;;;;4966991;28;20032;-38
2024/03/21 07:26:58;;;;;;;5.25;2.55;;;14.50;78.90;;;;;;4982549;28;20111;-39
2024/03/21 07:29:24;;;;;;;4.22;2.20;;;14.50;79.00;;;;;;4980509;28;20053;-37
2024/03/21 07:31:50;;;;;;;2.90;2.10;;;14.50;79.00;;;;;;4981521;28;20027;-39
2024/03/21 07:34:16;;;;;;;3.42;1.85;;;14.50;79.00;;;;;;4977731;28;20038;-41
2024/03/21 07:36:42;;;;;;;4.35;2.00;;;14.50;79.10;;;;;;4987885;28;20511;-41
2024/03/21 07:39:08;;;;;;;4.43;2.15;;;14.50;79.00;;;;;;4969962;28;20470;-41
2024/03/21 07:41:34;;;;;;;1.83;1.67;;;14.40;79.00;;;;;;4979874;28;20030;-44
2024/03/21 07:44:01;;;;;;;4.18;1.98;;;14.50;79.10;;;;;;4981918;28;20027;-38
2024/03/21 07:46:27;;;;;;;3.08;1.88;;;14.50;79.10;;;;;;4977888;28;20082;-39
2024/03/21 07:48:52;;;;;;;5.88;1.80;;;14.50;79.10;;;;;;4972460;28;20023;-39
2024/03/21 07:51:18;;;;;;;3.15;2.00;;;14.40;79.10;;;;;;4976031;28;20471;-40
2024/03/21 07:53:44;;;;;;;3.28;1.88;;;14.40;79.10;;;;;;4981499;28;20043;-36
2024/03/21 07:56:09;;;;;;;2.70;1.92;;;14.40;79.20;;;;;;4976747;28;20058;-38
2024/03/21 07:58:35;;;;;;;2.63;1.73;;;14.40;79.20;;;;;;4984267;28;20105;-39
2024/03/21 08:01:01;;;;;;;3.05;1.88;;;14.40;79.30;;;;;;4979874;28;20086;-39
2024/03/21 08:03:26;;;;;;;2.40;1.67;;;14.40;79.30;;;;;;4972514;28;20031;-41
2024/03/21 08:05:52;;;;;;;2.78;1.65;;;14.40;79.30;;;;;;4981559;28;20054;-41
2024/03/21 08:08:18;;;;;;;3.60;1.75;;;14.40;79.30;;;;;;4979123;28;20093;-41
2024/03/21 08:10:44;;;;;;;2.63;1.65;;;14.40;79.20;;;;;;4977626;28;20046;-41
2024/03/21 08:13:10;;;;;;;2.28;1.55;;;14.40;79.30;;;;;;4976419;28;20039;-42
2024/03/21 08:15:35;;;;;;;2.63;1.70;;;14.40;79.30;;;;;;4983240;28;20051;-41
2024/03/21 08:18:03;;;;;;;2.97;1.70;;;14.40;79.30;;;;;;4976938;28;20311;-41
2024/03/21 08:20:29;;;;;;;3.45;1.90;;;14.40;79.30;;;;;;4971352;28;20020;-41
2024/03/21 08:22:55;;;;;;;3.53;1.70;;;14.40;79.30;;;;;;4972548;28;20100;-41
2024/03/21 08:25:21;;;;;;;4.05;1.83;;;14.40;79.30;;;;;;4972240;28;20035;-41
2024/03/21 08:27:47;;;;;;;2.58;1.50;;;14.40;79.20;;;;;;4987212;28;20118;-42
2024/03/21 08:30:13;;;;;;;3.05;1.67;;;14.40;79.20;;;;;;4973100;28;20033;-41
2024/03/21 08:32:38;;;;;;;3.55;1.90;;;14.40;79.30;;;;;;4969245;28;20023;-41
2024/03/21 08:35:05;;;;;;;4.15;1.73;;;14.40;79.30;;;;;;4969376;28;20086;-41
2024/03/21 08:37:30;;;;;;;2.20;1.45;;;14.40;79.30;;;;;;4972508;28;20027;-38
2024/03/21 08:39:58;;;;;;;2.83;1.50;;;14.40;79.30;;;;;;4972690;28;20542;-39
2024/03/21 08:42:24;;;;;;;2.30;1.60;;;14.40;79.30;;;;;;4979647;28;20066;-41
2024/03/21 08:44:54;;;;;;;1.63;1.50;;;14.40;79.30;;;;;;4971155;28;20031;-38
2024/03/21 08:47:20;;;;;;;1.77;1.50;;;14.40;79.20;;;;;;4966600;28;20026;-41
2024/03/21 08:49:46;;;;;;;2.45;1.50;;;14.40;79.20;;;;;;4978952;28;20050;-39
2024/03/21 08:52:12;;;;;;;3.33;1.70;;;14.40;79.20;;;;;;4973668;28;20051;-41
2024/03/21 08:54:38;;;;;;;3.60;1.77;;;14.50;79.20;;;;;;4972626;28;20042;-40
2024/03/21 08:57:03;;;;;;;4.18;1.73;;;14.50;79.10;;;;;;4974982;28;20495;-44
2024/03/21 08:59:29;;;;;;;3.20;1.73;;;14.50;79.20;;;;;;4949525;28;20130;-41
2024/03/21 09:01:55;;;;;;;2.35;1.60;;;14.40;79.10;;;;;;4968997;28;20046;-40
2024/03/21 09:04:21;;;;;;;3.67;1.50;;;14.50;79.20;;;;;;4976188;28;20045;-40
2024/03/21 09:06:46;;;;;;;2.40;1.45;;;14.50;79.20;;;;;;4973080;28;20078;-38
2024/03/21 09:09:12;;;;;;;2.78;1.83;;;14.50;79.10;;;;;;4967581;28;20063;-37
2024/03/21 09:11:38;;;;;;;2.90;1.65;;;14.60;79.10;;;;;;4974451;28;20070;-37
2024/03/21 09:14:04;;;;;;;4.13;1.70;;;14.50;79.00;;;;;;4979034;28;20026;-35
2024/03/21 09:16:29;;;;;;;3.80;1.80;;;14.50;78.90;;;;;;4977350;28;20045;-36
2024/03/21 09:18:55;;;;;;;2.95;1.88;;;14.60;78.90;;;;;;4971603;28;20031;-37
2024/03/21 09:21:21;;;;;;;3.53;2.03;;;14.60;78.90;;;;;;4974167;28;20022;-36
2024/03/21 09:23:48;;;;;;;3.03;1.70;;;14.60;79.00;;;;;;4961562;28;20319;-38
2024/03/21 09:26:14;;;;;;;4.28;1.90;;;14.60;79.00;;;;;;4976579;28;20054;-36
2024/03/21 09:28:40;;;;;;;2.63;1.63;;;14.60;78.90;;;;;;4966934;28;20019;-34
2024/03/21 09:31:06;;;;;;;2.90;1.85;;;14.70;79.00;;;;;;4980393;28;20042;-38
2024/03/21 09:33:32;;;;;;;3.45;1.73;;;14.70;78.90;;;;;;4947761;28;20454;-38
2024/03/21 09:35:59;;;;;;;4.00;1.73;;;14.70;78.90;;;;;;4985258;28;20038;-37
2024/03/21 09:38:26;;;;;;;3.30;1.85;;;14.70;78.90;;;;;;4972981;28;20027;-38
2024/03/21 09:40:51;;;;;;;3.88;2.20;;;14.70;79.00;;;;;;4980704;28;20052;-39
2024/03/21 09:43:17;;;;;;;3.55;1.80;;;14.70;78.90;;;;;;4979520;28;20049;-37
2024/03/21 09:45:44;;;;;;;4.07;2.00;;;14.70;79.00;;;;;;4981618;28;20027;-39
2024/03/21 09:48:11;;;;;;;2.97;1.80;;;14.80;79.00;;;;;;4964536;28;20019;-38
2024/03/21 09:50:41;;;;;;;2.70;1.90;;;14.80;79.00;;;;;;4963137;28;20018;-38
2024/03/21 09:53:12;;;;;;;3.90;1.90;;;14.90;79.00;;;;;;4979291;28;20053;-38
2024/03/21 09:55:40;;;;;;;4.75;2.20;;;14.90;79.00;;;;;;4976719;28;20039;-37
2024/03/21 09:58:14;;;;;;;4.13;1.90;;;14.90;78.90;;;;;;4970682;28;20019;-37
2024/03/21 10:00:41;;;;;;;2.78;1.70;;;14.90;78.90;;;;;;4978525;28;20046;-36
2024/03/21 10:03:13;;;;;;;3.45;1.90;;;14.90;78.90;;;;;;4970293;28;20019;-39
2024/03/21 10:05:46;;;;;;;2.58;1.95;;;15.00;78.90;;;;;;4966407;28;20416;-37
2024/03/21 10:08:15;;;;;;;2.17;1.80;;;15.00;78.80;;;;;;4972030;28;20156;-38
2024/03/21 10:10:43;;;;;;;2.95;1.85;;;15.00;78.70;;;;;;4975175;28;20031;-39
2024/03/21 10:13:09;;;;;;;2.72;2.03;;;15.10;78.80;;;;;;4977752;28;20031;-38
2024/03/21 10:15:36;;;;;;;3.28;1.90;;;15.10;78.80;;;;;;4975025;28;20069;-35
2024/03/21 10:18:03;;;;;;;4.20;2.40;;;15.10;78.80;;;;;;4977675;28;20026;-38
2024/03/21 10:20:28;;;;;;;4.50;2.30;;;15.20;78.70;;;;;;4968334;28;20038;-38
2024/03/21 10:22:56;;;;;;;4.45;2.30;;;15.20;78.70;;;;;;4976668;28;20098;-35
2024/03/21 10:25:22;;;;;;;3.55;2.30;;;15.20;78.70;;;;;;4971982;28;20059;-39
2024/03/21 10:27:48;;;;;;;2.85;2.28;;;15.30;78.70;;;;;;4989177;28;20031;-38
2024/03/21 10:30:19;;;;;;;4.63;2.38;;;15.30;78.60;;;;;;4964573;28;20031;-38
2024/03/21 10:32:46;;;;;;;4.43;2.38;;;15.30;78.60;;;;;;4982709;28;20043;-39
2024/03/21 10:35:17;;;;;;;5.03;2.28;;;15.40;78.60;;;;;;4976105;28;20109;-37
2024/03/21 10:37:44;;;;;;;4.05;2.60;;;15.40;78.60;;;;;;4985221;28;20028;-38
2024/03/21 10:40:14;;;;;;;4.05;2.78;;;15.40;78.50;;;;;;4979442;28;20027;-38
2024/03/21 10:42:52;;;;;;;3.83;2.40;;;15.50;78.50;;;;;;4965544;28;20049;-38
2024/03/21 10:45:19;;;;;;;4.82;2.60;;;15.50;78.40;;;;;;4980846;28;20034;-39
2024/03/21 10:47:50;;;;;;;3.55;2.70;;;15.60;78.40;;;;;;4978500;28;20059;-37
2024/03/21 10:50:18;;;;;;;3.17;2.63;;;15.60;78.40;;;;;;4965961;28;20113;-37
2024/03/21 10:52:52;;;;;;;3.38;2.60;;;15.60;78.30;;;;;;4969146;28;20078;-39
2024/03/21 10:55:19;;;;;;;4.10;2.67;;;15.70;78.30;;;;;;4972650;28;20035;-39
2024/03/21 10:57:51;;;;;;;3.17;2.53;;;15.70;78.20;;;;;;4994276;28;20038;-39
2024/03/21 11:00:20;;;;;;;3.75;2.55;;;15.70;78.10;;;;;;4979138;28;20543;-38
2024/03/21 11:02:52;;;;;;;4.25;2.85;;;15.80;78.10;;;;;;4982035;28;20034;-36
2024/03/21 11:05:23;;;;;;;4.32;2.63;;;15.80;78.10;;;;;;4973033;28;20094;-38
2024/03/21 11:07:49;;;;;;;3.45;2.50;;;15.90;78.10;;;;;;4978603;28;20031;-38
2024/03/21 11:10:19;;;;;;;4.05;2.40;;;15.80;78.00;;;;;;4982058;28;20368;-38
2024/03/21 11:12:49;;;;;;;4.20;2.88;;;16.00;78.00;;;;;;4966690;28;20023;-37
2024/03/21 11:15:15;;;;;;;3.67;2.58;;;16.00;77.90;;;;;;4959264;28;20110;-39
2024/03/21 11:17:43;;;;;;;3.65;2.40;;;16.00;77.90;;;;;;4980255;28;20110;-37
2024/03/21 11:20:10;;;;;;;3.88;2.47;;;16.00;77.90;;;;;;4960663;28;20089;-39
2024/03/21 11:22:44;;;;;;;3.65;2.40;;;16.10;77.90;;;;;;4980460;28;20073;-39
2024/03/21 11:25:11;;;;;;;3.47;2.53;;;16.20;77.80;;;;;;4981257;28;20045;-38
2024/03/21 11:27:37;;;;;;;3.65;2.78;;;16.20;77.80;;;;;;4990913;28;20046;-37
2024/03/21 11:30:06;;;;;;;3.22;2.40;;;16.20;77.70;;;;;;4981283;28;20030;-36
2024/03/21 11:32:32;;;;;;;3.75;2.70;;;16.20;77.70;;;;;;4976569;28;20027;-34
2024/03/21 11:34:57;;;;;;;4.15;2.45;;;16.30;77.70;;;;;;4974652;28;20048;-37
2024/03/21 11:37:24;;;;;;;4.10;2.50;;;16.30;77.70;;;;;;4983984;28;20847;-38
2024/03/21 11:39:50;;;;;;;3.67;2.35;;;16.40;77.70;;;;;;4982825;28;20027;-34
2024/03/21 11:42:20;;;;;;;3.20;2.50;;;16.40;77.60;;;;;;4976651;28;20035;-38
2024/03/21 11:44:47;;;;;;;3.33;2.45;;;16.40;77.60;;;;;;4972512;28;20506;-39
2024/03/21 11:47:17;;;;;;;3.53;2.75;;;16.50;77.60;;;;;;4982060;28;20042;-37
2024/03/21 11:49:51;;;;;;;3.33;2.30;;;16.50;77.50;;;;;;4969953;28;20443;-39
2024/03/21 11:52:18;;;;;;;4.53;2.47;;;16.60;77.50;;;;;;4982387;28;20074;-36
2024/03/21 11:54:44;;;;;;;3.15;2.50;;;16.60;77.50;;;;;;4980938;28;20027;-39
2024/03/21 11:57:13;;;;;;;2.97;2.30;;;16.70;77.50;;;;;;4982538;28;20077;-38
2024/03/21 11:59:41;;;;;;;7.38;2.45;;;16.70;77.40;;;;;;4960574;28;20384;-40
2024/03/21 12:02:19;;;;;;;4.53;2.72;;;16.70;77.50;;;;;;4974006;28;20054;-37
2024/03/21 12:04:45;;;;;;;3.42;2.40;;;16.80;77.50;;;;;;4966825;28;20026;-35
2024/03/21 12:07:13;;;;;;;3.58;2.38;;;16.80;77.40;;;;;;4978784;28;20023;-39
2024/03/21 12:09:39;;;;;;;3.75;2.30;;;16.80;77.40;;;;;;4981997;28;20011;-39
2024/03/21 12:12:08;;;;;;;3.63;2.50;;;16.90;77.50;;;;;;4983488;28;20609;-38
2024/03/21 12:14:33;;;;;;;4.05;2.28;;;16.90;77.40;;;;;;4972111;28;20027;-37
2024/03/21 12:16:59;;;;;;;2.90;2.47;;;16.90;77.40;;;;;;4975155;28;20411;-35
2024/03/21 12:19:25;;;;;;;4.35;2.67;;;16.90;77.30;;;;;;4962806;28;20031;-36
2024/03/21 12:21:50;;;;;;;3.63;2.63;;;17.00;77.30;;;;;;4972673;28;20028;-35
2024/03/21 12:24:16;;;;;;;4.03;2.50;;;17.00;77.30;;;;;;4975210;28;20050;-35
2024/03/21 12:26:42;;;;;;;2.58;2.22;;;17.10;77.30;;;;;;4978104;28;20035;-36
2024/03/21 12:29:07;;;;;;;3.88;2.72;;;17.10;77.30;;;;;;4969663;28;20027;-38
2024/03/21 12:31:33;;;;;;;3.35;2.40;;;17.10;77.20;;;;;;4961726;28;20031;-35
2024/03/21 12:34:00;;;;;;;3.45;2.45;;;17.20;77.20;;;;;;4979946;28;20410;-35
2024/03/21 12:36:26;;;;;;;3.83;2.40;;;17.20;77.10;;;;;;4972941;28;20044;-38
2024/03/21 12:38:52;;;;;;;3.25;2.45;;;17.20;77.10;;;;;;4962665;28;20051;-37
2024/03/21 12:41:18;;;;;;;3.33;2.70;;;17.30;77.10;;;;;;4962841;28;20023;-37